CheckWX is a tool to help pilots better visualize weather data.  It is not intended as a substitute for an official pre-flight weather briefing.

12:56:26 UTC

KRWF METAR
Redwood Falls Municipal Airport
Redwood Falls, Minnesota, USA
Current

38 mins ago

KRWF 171218Z AUTO 00000KT 4SM BR SCT005 14/14 A2997 RMK AO2 T01440139
Observed
Jun-17 @ 12:18 UTC
Visibility
4 SM
Flight Rules
MVFR
Conditions
Mist
Cloud Levels
  • Scattered at 500' AGL
Temperature
14°C / 57°F
Dewpoint
14°C / 57°F
Humidity
100%
Altimeter
29.97" Hg
Pressure
1014.92 hPa
Previous

1 hour ago

KRWF 171153Z AUTO 30003KT 4SM BR OVC004 14/14 A2997 RMK AO2 SLP145 T01440139 10189 20139 53010
Observed
Jun-17 @ 11:53 UTC
Wind
  • 300° at 3 KTS
Visibility
4 SM
Flight Rules
LIFR
Conditions
Mist
Cloud Levels
  • Overcast at 400' AGL
Temperature
14°C / 57°F
Dewpoint
14°C / 57°F
Humidity
100%
Altimeter
29.97" Hg
Pressure
1014.92 hPa
Previous

1 hour ago

KRWF 171146Z AUTO 00000KT 2 1/2SM BR OVC002 15/15 A2997 RMK AO2 T01500150
Observed
Jun-17 @ 11:46 UTC
Visibility
2 1/2 SM
Flight Rules
LIFR
Conditions
Mist
Cloud Levels
  • Overcast at 200' AGL
Temperature
15°C / 59°F
Dewpoint
15°C / 59°F
Humidity
100%
Altimeter
29.97" Hg
Pressure
1014.92 hPa